sensor_id;sensor_type;location;lat;lon;timestamp;P1;durP1;ratioP1;P2;durP2;ratioP2
72161;SDS011;60047;51.644;5.842;2022-11-20T00:04:51;5.5;;;5.0;;
72161;SDS011;60047;51.644;5.842;2022-11-20T00:09:50;5.4;;;4.9;;
72161;SDS011;60047;51.644;5.842;2022-11-20T00:14:50;5.4;;;4.9;;
72161;SDS011;60047;51.644;5.842;2022-11-20T00:19:50;5.3;;;4.9;;
72161;SDS011;60047;51.644;5.842;2022-11-20T00:24:51;5.4;;;4.9;;
72161;SDS011;60047;51.644;5.842;2022-11-20T00:29:51;5.7;;;4.9;;
72161;SDS011;60047;51.644;5.842;2022-11-20T00:34:51;5.5;;;5.0;;
72161;SDS011;60047;51.644;5.842;2022-11-20T00:39:51;5.5;;;5.0;;
72161;SDS011;60047;51.644;5.842;2022-11-20T00:44:50;5.5;;;4.9;;
72161;SDS011;60047;51.644;5.842;2022-11-20T00:49:51;5.5;;;4.9;;
72161;SDS011;60047;51.644;5.842;2022-11-20T00:54:51;5.7;;;5.1;;
72161;SDS011;60047;51.644;5.842;2022-11-20T00:59:51;5.5;;;4.8;;
72161;SDS011;60047;51.644;5.842;2022-11-20T01:04:51;5.4;;;4.9;;
72161;SDS011;60047;51.644;5.842;2022-11-20T01:09:51;5.5;;;5.0;;
72161;SDS011;60047;51.644;5.842;2022-11-20T01:14:51;6.2;;;5.2;;
72161;SDS011;60047;51.644;5.842;2022-11-20T01:19:51;5.7;;;5.1;;
72161;SDS011;60047;51.644;5.842;2022-11-20T01:24:51;6.0;;;5.4;;
72161;SDS011;60047;51.644;5.842;2022-11-20T01:29:51;5.8;;;5.3;;
72161;SDS011;60047;51.644;5.842;2022-11-20T01:34:51;6.0;;;5.4;;
72161;SDS011;60047;51.644;5.842;2022-11-20T01:39:51;6.1;;;5.6;;
72161;SDS011;60047;51.644;5.842;2022-11-20T01:44:59;5.4;;;4.9;;
72161;SDS011;60047;51.644;5.842;2022-11-20T01:49:52;5.6;;;5.0;;
72161;SDS011;60047;51.644;5.842;2022-11-20T01:55:08;5.2;;;4.7;;
72161;SDS011;60047;51.644;5.842;2022-11-20T01:59:52;6.0;;;5.5;;
72161;SDS011;60047;51.644;5.842;2022-11-20T02:04:51;5.8;;;5.3;;
72161;SDS011;60047;51.644;5.842;2022-11-20T02:09:51;6.0;;;5.4;;
72161;SDS011;60047;51.644;5.842;2022-11-20T02:14:51;5.9;;;5.2;;
72161;SDS011;60047;51.644;5.842;2022-11-20T02:19:51;6.5;;;5.5;;
72161;SDS011;60047;51.644;5.842;2022-11-20T02:24:51;5.9;;;5.3;;
72161;SDS011;60047;51.644;5.842;2022-11-20T02:29:57;6.2;;;5.6;;
72161;SDS011;60047;51.644;5.842;2022-11-20T02:34:51;5.9;;;5.3;;
72161;SDS011;60047;51.644;5.842;2022-11-20T02:39:51;6.3;;;5.6;;
72161;SDS011;60047;51.644;5.842;2022-11-20T02:44:51;5.9;;;5.4;;
72161;SDS011;60047;51.644;5.842;2022-11-20T02:49:51;5.8;;;5.2;;
72161;SDS011;60047;51.644;5.842;2022-11-20T02:54:51;6.3;;;5.6;;
72161;SDS011;60047;51.644;5.842;2022-11-20T02:59:51;5.8;;;5.3;;
72161;SDS011;60047;51.644;5.842;2022-11-20T03:09:51;7.2;;;6.4;;
72161;SDS011;60047;51.644;5.842;2022-11-20T03:14:51;6.9;;;6.1;;
72161;SDS011;60047;51.644;5.842;2022-11-20T03:19:51;7.2;;;6.4;;
72161;SDS011;60047;51.644;5.842;2022-11-20T03:24:51;6.7;;;6.1;;
72161;SDS011;60047;51.644;5.842;2022-11-20T03:29:51;7.8;;;6.8;;
72161;SDS011;60047;51.644;5.842;2022-11-20T03:34:51;6.3;;;5.6;;
72161;SDS011;60047;51.644;5.842;2022-11-20T03:39:51;6.4;;;5.8;;
72161;SDS011;60047;51.644;5.842;2022-11-20T03:44:51;7.2;;;6.3;;
72161;SDS011;60047;51.644;5.842;2022-11-20T03:49:51;6.4;;;5.8;;
72161;SDS011;60047;51.644;5.842;2022-11-20T03:54:51;6.4;;;5.8;;
72161;SDS011;60047;51.644;5.842;2022-11-20T03:59:51;6.1;;;5.6;;
72161;SDS011;60047;51.644;5.842;2022-11-20T04:04:51;6.2;;;5.4;;
72161;SDS011;60047;51.644;5.842;2022-11-20T04:09:51;6.2;;;5.5;;
72161;SDS011;60047;51.644;5.842;2022-11-20T04:14:51;6.3;;;5.7;;
72161;SDS011;60047;51.644;5.842;2022-11-20T04:19:51;6.0;;;5.5;;
72161;SDS011;60047;51.644;5.842;2022-11-20T04:24:51;5.8;;;5.2;;
72161;SDS011;60047;51.644;5.842;2022-11-20T04:29:51;6.5;;;4.9;;
72161;SDS011;60047;51.644;5.842;2022-11-20T04:34:51;6.6;;;5.7;;
72161;SDS011;60047;51.644;5.842;2022-11-20T04:39:51;6.0;;;5.0;;
72161;SDS011;60047;51.644;5.842;2022-11-20T04:44:51;6.3;;;5.3;;
72161;SDS011;60047;51.644;5.842;2022-11-20T04:49:51;6.0;;;5.4;;
72161;SDS011;60047;51.644;5.842;2022-11-20T04:54:51;6.1;;;5.4;;
72161;SDS011;60047;51.644;5.842;2022-11-20T04:59:51;6.8;;;6.0;;
72161;SDS011;60047;51.644;5.842;2022-11-20T05:04:51;6.6;;;5.9;;
72161;SDS011;60047;51.644;5.842;2022-11-20T05:09:51;5.6;;;5.0;;
72161;SDS011;60047;51.644;5.842;2022-11-20T05:14:51;5.9;;;5.3;;
72161;SDS011;60047;51.644;5.842;2022-11-20T05:19:51;6.1;;;5.3;;
72161;SDS011;60047;51.644;5.842;2022-11-20T05:24:51;6.2;;;5.1;;
72161;SDS011;60047;51.644;5.842;2022-11-20T05:29:51;6.2;;;5.6;;
72161;SDS011;60047;51.644;5.842;2022-11-20T05:34:51;5.8;;;5.3;;
72161;SDS011;60047;51.644;5.842;2022-11-20T05:39:51;6.6;;;5.6;;
72161;SDS011;60047;51.644;5.842;2022-11-20T05:44:51;5.8;;;5.2;;
72161;SDS011;60047;51.644;5.842;2022-11-20T05:49:51;6.3;;;5.6;;
72161;SDS011;60047;51.644;5.842;2022-11-20T05:54:51;6.5;;;5.7;;
72161;SDS011;60047;51.644;5.842;2022-11-20T05:59:52;7.0;;;5.7;;
72161;SDS011;60047;51.644;5.842;2022-11-20T06:04:52;6.4;;;5.8;;
72161;SDS011;60047;51.644;5.842;2022-11-20T06:09:51;5.9;;;5.3;;
72161;SDS011;60047;51.644;5.842;2022-11-20T06:14:52;6.3;;;5.5;;
72161;SDS011;60047;51.644;5.842;2022-11-20T06:19:52;6.0;;;5.3;;
72161;SDS011;60047;51.644;5.842;2022-11-20T06:24:52;5.7;;;5.1;;
72161;SDS011;60047;51.644;5.842;2022-11-20T06:29:52;5.6;;;5.0;;
72161;SDS011;60047;51.644;5.842;2022-11-20T06:34:52;6.1;;;5.4;;
72161;SDS011;60047;51.644;5.842;2022-11-20T06:39:52;6.0;;;5.2;;
72161;SDS011;60047;51.644;5.842;2022-11-20T06:44:52;5.4;;;4.9;;
72161;SDS011;60047;51.644;5.842;2022-11-20T06:49:52;5.6;;;5.1;;
72161;SDS011;60047;51.644;5.842;2022-11-20T06:54:52;5.6;;;4.9;;
72161;SDS011;60047;51.644;5.842;2022-11-20T06:59:52;5.3;;;4.8;;
72161;SDS011;60047;51.644;5.842;2022-11-20T07:04:52;5.4;;;4.9;;
72161;SDS011;60047;51.644;5.842;2022-11-20T07:09:52;5.2;;;4.6;;
72161;SDS011;60047;51.644;5.842;2022-11-20T07:14:52;5.4;;;5.0;;
72161;SDS011;60047;51.644;5.842;2022-11-20T07:19:52;6.2;;;5.6;;
72161;SDS011;60047;51.644;5.842;2022-11-20T07:24:52;5.4;;;4.9;;
72161;SDS011;60047;51.644;5.842;2022-11-20T07:29:52;5.9;;;4.7;;
72161;SDS011;60047;51.644;5.842;2022-11-20T07:34:52;5.3;;;4.9;;
72161;SDS011;60047;51.644;5.842;2022-11-20T07:39:52;5.8;;;4.8;;
72161;SDS011;60047;51.644;5.842;2022-11-20T07:44:52;5.9;;;5.2;;
72161;SDS011;60047;51.644;5.842;2022-11-20T07:54:52;5.6;;;5.1;;
72161;SDS011;60047;51.644;5.842;2022-11-20T07:59:52;5.5;;;4.9;;
72161;SDS011;60047;51.644;5.842;2022-11-20T08:04:52;5.1;;;4.7;;
72161;SDS011;60047;51.644;5.842;2022-11-20T08:09:52;5.5;;;4.9;;
72161;SDS011;60047;51.644;5.842;2022-11-20T08:14:52;5.4;;;4.9;;
72161;SDS011;60047;51.644;5.842;2022-11-20T08:19:52;5.5;;;4.8;;
72161;SDS011;60047;51.644;5.842;2022-11-20T08:24:52;5.5;;;5.0;;
72161;SDS011;60047;51.644;5.842;2022-11-20T08:29:52;5.5;;;4.9;;
72161;SDS011;60047;51.644;5.842;2022-11-20T08:34:52;5.7;;;4.9;;
72161;SDS011;60047;51.644;5.842;2022-11-20T08:39:52;5.3;;;4.8;;
72161;SDS011;60047;51.644;5.842;2022-11-20T08:44:52;5.0;;;4.6;;
72161;SDS011;60047;51.644;5.842;2022-11-20T08:49:52;5.5;;;5.0;;
72161;SDS011;60047;51.644;5.842;2022-11-20T08:54:52;5.7;;;5.1;;
72161;SDS011;60047;51.644;5.842;2022-11-20T08:59:52;5.5;;;5.0;;
72161;SDS011;60047;51.644;5.842;2022-11-20T09:04:52;5.8;;;5.3;;
72161;SDS011;60047;51.644;5.842;2022-11-20T09:09:52;5.5;;;4.9;;
72161;SDS011;60047;51.644;5.842;2022-11-20T09:14:52;6.1;;;5.5;;
72161;SDS011;60047;51.644;5.842;2022-11-20T09:19:52;5.7;;;5.2;;
72161;SDS011;60047;51.644;5.842;2022-11-20T09:24:52;6.1;;;5.3;;
72161;SDS011;60047;51.644;5.842;2022-11-20T09:29:52;6.5;;;5.8;;
72161;SDS011;60047;51.644;5.842;2022-11-20T09:34:52;6.7;;;6.1;;
72161;SDS011;60047;51.644;5.842;2022-11-20T09:39:52;6.3;;;5.7;;
72161;SDS011;60047;51.644;5.842;2022-11-20T09:45:21;6.3;;;5.6;;
72161;SDS011;60047;51.644;5.842;2022-11-20T09:50:38;6.7;;;6.1;;
72161;SDS011;60047;51.644;5.842;2022-11-20T09:54:52;6.8;;;6.1;;
72161;SDS011;60047;51.644;5.842;2022-11-20T09:59:53;7.1;;;6.3;;
72161;SDS011;60047;51.644;5.842;2022-11-20T10:05:06;6.7;;;6.0;;
72161;SDS011;60047;51.644;5.842;2022-11-20T10:09:56;7.3;;;6.2;;
72161;SDS011;60047;51.644;5.842;2022-11-20T10:15:21;7.1;;;6.0;;
72161;SDS011;60047;51.644;5.842;2022-11-20T10:21:27;7.1;;;6.4;;
72161;SDS011;60047;51.644;5.842;2022-11-20T10:27:13;7.1;;;6.3;;
72161;SDS011;60047;51.644;5.842;2022-11-20T10:30:23;6.9;;;6.1;;
72161;SDS011;60047;51.644;5.842;2022-11-20T10:35:21;8.4;;;6.8;;
72161;SDS011;60047;51.644;5.842;2022-11-20T10:39:58;6.7;;;6.1;;
72161;SDS011;60047;51.644;5.842;2022-11-20T10:45:13;6.3;;;5.6;;
72161;SDS011;60047;51.644;5.842;2022-11-20T10:56:23;6.8;;;5.8;;
72161;SDS011;60047;51.644;5.842;2022-11-20T11:00:14;8.3;;;6.4;;
72161;SDS011;60047;51.644;5.842;2022-11-20T11:04:53;7.6;;;6.7;;
72161;SDS011;60047;51.644;5.842;2022-11-20T11:09:53;6.9;;;6.2;;
72161;SDS011;60047;51.644;5.842;2022-11-20T11:14:53;6.5;;;5.7;;
72161;SDS011;60047;51.644;5.842;2022-11-20T11:19:56;7.0;;;6.3;;
72161;SDS011;60047;51.644;5.842;2022-11-20T11:24:53;7.2;;;6.5;;
72161;SDS011;60047;51.644;5.842;2022-11-20T11:30:01;6.6;;;6.0;;
72161;SDS011;60047;51.644;5.842;2022-11-20T11:34:59;7.8;;;6.7;;
72161;SDS011;60047;51.644;5.842;2022-11-20T11:39:52;7.0;;;5.9;;
72161;SDS011;60047;51.644;5.842;2022-11-20T11:44:52;6.6;;;6.0;;
72161;SDS011;60047;51.644;5.842;2022-11-20T11:49:52;6.3;;;5.7;;
72161;SDS011;60047;51.644;5.842;2022-11-20T11:55:04;6.6;;;5.8;;
72161;SDS011;60047;51.644;5.842;2022-11-20T12:00:09;7.0;;;6.3;;
72161;SDS011;60047;51.644;5.842;2022-11-20T12:05:08;7.6;;;6.6;;
72161;SDS011;60047;51.644;5.842;2022-11-20T12:09:53;62.9;;;13.2;;
72161;SDS011;60047;51.644;5.842;2022-11-20T12:14:54;17.4;;;7.6;;
72161;SDS011;60047;51.644;5.842;2022-11-20T12:19:52;29.4;;;8.4;;
72161;SDS011;60047;51.644;5.842;2022-11-20T12:25:24;18.7;;;8.0;;
72161;SDS011;60047;51.644;5.842;2022-11-20T12:30:18;12.1;;;6.9;;
72161;SDS011;60047;51.644;5.842;2022-11-20T12:35:35;14.2;;;7.5;;
72161;SDS011;60047;51.644;5.842;2022-11-20T12:39:56;19.0;;;7.5;;
72161;SDS011;60047;51.644;5.842;2022-11-20T12:45:48;14.5;;;7.3;;
72161;SDS011;60047;51.644;5.842;2022-11-20T12:50:59;15.3;;;7.5;;
72161;SDS011;60047;51.644;5.842;2022-11-20T12:56:46;13.3;;;7.7;;
72161;SDS011;60047;51.644;5.842;2022-11-20T13:00:27;15.5;;;8.1;;
72161;SDS011;60047;51.644;5.842;2022-11-20T13:05:31;12.0;;;7.5;;
72161;SDS011;60047;51.644;5.842;2022-11-20T13:09:53;12.9;;;7.5;;
72161;SDS011;60047;51.644;5.842;2022-11-20T13:15:07;13.0;;;7.9;;
72161;SDS011;60047;51.644;5.842;2022-11-20T13:19:53;12.9;;;7.6;;
72161;SDS011;60047;51.644;5.842;2022-11-20T13:24:53;12.0;;;7.6;;
72161;SDS011;60047;51.644;5.842;2022-11-20T13:30:13;13.5;;;7.6;;
72161;SDS011;60047;51.644;5.842;2022-11-20T13:34:53;9.4;;;7.1;;
72161;SDS011;60047;51.644;5.842;2022-11-20T13:39:53;12.0;;;7.4;;
72161;SDS011;60047;51.644;5.842;2022-11-20T13:44:55;12.5;;;7.9;;
72161;SDS011;60047;51.644;5.842;2022-11-20T13:49:53;14.3;;;8.9;;
72161;SDS011;60047;51.644;5.842;2022-11-20T13:56:01;10.8;;;7.0;;
72161;SDS011;60047;51.644;5.842;2022-11-20T14:00:26;13.4;;;8.3;;
72161;SDS011;60047;51.644;5.842;2022-11-20T14:04:54;14.9;;;8.1;;
72161;SDS011;60047;51.644;5.842;2022-11-20T14:09:53;11.1;;;7.7;;
72161;SDS011;60047;51.644;5.842;2022-11-20T14:14:53;10.2;;;8.2;;
72161;SDS011;60047;51.644;5.842;2022-11-20T14:19:53;14.3;;;8.4;;
72161;SDS011;60047;51.644;5.842;2022-11-20T14:25:01;13.5;;;8.3;;
72161;SDS011;60047;51.644;5.842;2022-11-20T14:29:53;15.6;;;8.2;;
72161;SDS011;60047;51.644;5.842;2022-11-20T14:34:53;13.2;;;8.6;;
72161;SDS011;60047;51.644;5.842;2022-11-20T14:39:56;12.4;;;8.7;;
72161;SDS011;60047;51.644;5.842;2022-11-20T14:44:55;10.5;;;7.5;;
72161;SDS011;60047;51.644;5.842;2022-11-20T14:49:53;12.0;;;8.9;;
72161;SDS011;60047;51.644;5.842;2022-11-20T14:54:54;11.6;;;8.3;;
72161;SDS011;60047;51.644;5.842;2022-11-20T15:00:05;10.5;;;7.9;;
72161;SDS011;60047;51.644;5.842;2022-11-20T15:04:56;13.3;;;8.5;;
72161;SDS011;60047;51.644;5.842;2022-11-20T15:09:58;11.4;;;8.3;;
72161;SDS011;60047;51.644;5.842;2022-11-20T15:14:53;13.7;;;9.6;;
72161;SDS011;60047;51.644;5.842;2022-11-20T15:19:53;13.6;;;9.6;;
72161;SDS011;60047;51.644;5.842;2022-11-20T15:24:53;11.9;;;8.5;;
72161;SDS011;60047;51.644;5.842;2022-11-20T15:34:53;11.9;;;8.9;;
72161;SDS011;60047;51.644;5.842;2022-11-20T15:39:53;12.5;;;9.2;;
72161;SDS011;60047;51.644;5.842;2022-11-20T15:44:53;12.0;;;8.5;;
72161;SDS011;60047;51.644;5.842;2022-11-20T15:49:53;11.0;;;8.2;;
72161;SDS011;60047;51.644;5.842;2022-11-20T15:54:53;10.9;;;8.7;;
72161;SDS011;60047;51.644;5.842;2022-11-20T15:59:53;9.7;;;7.6;;
72161;SDS011;60047;51.644;5.842;2022-11-20T16:04:53;10.0;;;7.6;;
72161;SDS011;60047;51.644;5.842;2022-11-20T16:09:53;10.6;;;8.2;;
72161;SDS011;60047;51.644;5.842;2022-11-20T16:14:53;11.2;;;7.8;;
72161;SDS011;60047;51.644;5.842;2022-11-20T16:19:53;10.3;;;7.7;;
72161;SDS011;60047;51.644;5.842;2022-11-20T16:24:53;10.5;;;7.9;;
72161;SDS011;60047;51.644;5.842;2022-11-20T16:29:53;10.6;;;8.2;;
72161;SDS011;60047;51.644;5.842;2022-11-20T16:34:53;10.8;;;8.2;;
72161;SDS011;60047;51.644;5.842;2022-11-20T16:39:53;9.2;;;6.9;;
72161;SDS011;60047;51.644;5.842;2022-11-20T16:44:53;9.4;;;7.5;;
72161;SDS011;60047;51.644;5.842;2022-11-20T16:49:53;10.3;;;7.2;;
72161;SDS011;60047;51.644;5.842;2022-11-20T16:54:53;9.2;;;7.4;;
72161;SDS011;60047;51.644;5.842;2022-11-20T16:59:53;9.3;;;7.2;;
72161;SDS011;60047;51.644;5.842;2022-11-20T17:04:53;8.1;;;6.9;;
72161;SDS011;60047;51.644;5.842;2022-11-20T17:09:53;8.5;;;6.6;;
72161;SDS011;60047;51.644;5.842;2022-11-20T17:14:53;9.5;;;6.8;;
72161;SDS011;60047;51.644;5.842;2022-11-20T17:19:53;8.2;;;6.8;;
72161;SDS011;60047;51.644;5.842;2022-11-20T17:24:53;9.4;;;7.6;;
72161;SDS011;60047;51.644;5.842;2022-11-20T17:29:53;9.2;;;8.0;;
72161;SDS011;60047;51.644;5.842;2022-11-20T17:34:53;10.6;;;7.9;;
72161;SDS011;60047;51.644;5.842;2022-11-20T17:39:53;9.5;;;7.3;;
72161;SDS011;60047;51.644;5.842;2022-11-20T17:44:53;8.0;;;6.9;;
72161;SDS011;60047;51.644;5.842;2022-11-20T17:49:53;8.8;;;6.5;;
72161;SDS011;60047;51.644;5.842;2022-11-20T17:54:53;8.9;;;7.1;;
72161;SDS011;60047;51.644;5.842;2022-11-20T17:59:53;8.6;;;6.9;;
72161;SDS011;60047;51.644;5.842;2022-11-20T18:04:53;9.2;;;6.7;;
72161;SDS011;60047;51.644;5.842;2022-11-20T18:09:53;8.1;;;7.2;;
72161;SDS011;60047;51.644;5.842;2022-11-20T18:14:53;8.3;;;7.0;;
72161;SDS011;60047;51.644;5.842;2022-11-20T18:19:53;8.8;;;6.6;;
72161;SDS011;60047;51.644;5.842;2022-11-20T18:24:53;8.0;;;6.2;;
72161;SDS011;60047;51.644;5.842;2022-11-20T18:29:53;9.1;;;7.2;;
72161;SDS011;60047;51.644;5.842;2022-11-20T18:34:53;9.3;;;6.9;;
72161;SDS011;60047;51.644;5.842;2022-11-20T18:49:54;7.6;;;6.4;;
72161;SDS011;60047;51.644;5.842;2022-11-20T18:54:54;8.0;;;6.8;;
72161;SDS011;60047;51.644;5.842;2022-11-20T18:59:54;7.9;;;6.8;;
72161;SDS011;60047;51.644;5.842;2022-11-20T19:04:53;8.2;;;7.3;;
72161;SDS011;60047;51.644;5.842;2022-11-20T19:09:53;7.6;;;6.4;;
72161;SDS011;60047;51.644;5.842;2022-11-20T19:14:54;8.1;;;7.1;;
72161;SDS011;60047;51.644;5.842;2022-11-20T19:19:53;9.8;;;7.2;;
72161;SDS011;60047;51.644;5.842;2022-11-20T19:24:54;8.9;;;7.6;;
72161;SDS011;60047;51.644;5.842;2022-11-20T19:29:54;9.2;;;7.3;;
72161;SDS011;60047;51.644;5.842;2022-11-20T19:34:53;7.8;;;6.8;;
72161;SDS011;60047;51.644;5.842;2022-11-20T19:39:54;8.4;;;7.1;;
72161;SDS011;60047;51.644;5.842;2022-11-20T19:44:54;9.7;;;7.3;;
72161;SDS011;60047;51.644;5.842;2022-11-20T19:49:54;8.7;;;7.6;;
72161;SDS011;60047;51.644;5.842;2022-11-20T19:54:54;8.8;;;7.2;;
72161;SDS011;60047;51.644;5.842;2022-11-20T19:59:54;8.3;;;7.2;;
72161;SDS011;60047;51.644;5.842;2022-11-20T20:04:54;8.6;;;7.0;;
72161;SDS011;60047;51.644;5.842;2022-11-20T20:09:54;8.0;;;7.1;;
72161;SDS011;60047;51.644;5.842;2022-11-20T20:14:54;8.1;;;6.9;;
72161;SDS011;60047;51.644;5.842;2022-11-20T20:19:54;9.2;;;7.8;;
72161;SDS011;60047;51.644;5.842;2022-11-20T20:24:54;9.2;;;8.0;;
72161;SDS011;60047;51.644;5.842;2022-11-20T20:29:54;8.7;;;7.2;;
72161;SDS011;60047;51.644;5.842;2022-11-20T20:34:54;8.6;;;7.4;;
72161;SDS011;60047;51.644;5.842;2022-11-20T20:39:54;8.3;;;7.4;;
72161;SDS011;60047;51.644;5.842;2022-11-20T20:44:54;9.2;;;7.9;;
72161;SDS011;60047;51.644;5.842;2022-11-20T20:49:54;10.0;;;8.0;;
72161;SDS011;60047;51.644;5.842;2022-11-20T20:54:54;9.7;;;8.0;;
72161;SDS011;60047;51.644;5.842;2022-11-20T20:59:54;9.7;;;8.4;;
72161;SDS011;60047;51.644;5.842;2022-11-20T21:04:54;9.8;;;7.9;;
72161;SDS011;60047;51.644;5.842;2022-11-20T21:09:54;9.2;;;8.3;;
72161;SDS011;60047;51.644;5.842;2022-11-20T21:14:54;9.5;;;7.7;;
72161;SDS011;60047;51.644;5.842;2022-11-20T21:19:54;9.4;;;8.2;;
72161;SDS011;60047;51.644;5.842;2022-11-20T21:24:54;9.5;;;8.4;;
72161;SDS011;60047;51.644;5.842;2022-11-20T21:29:54;9.4;;;8.2;;
72161;SDS011;60047;51.644;5.842;2022-11-20T21:34:54;10.4;;;8.9;;
72161;SDS011;60047;51.644;5.842;2022-11-20T21:39:54;9.8;;;8.5;;
72161;SDS011;60047;51.644;5.842;2022-11-20T21:44:54;9.8;;;8.8;;
72161;SDS011;60047;51.644;5.842;2022-11-20T21:49:54;9.5;;;8.3;;
72161;SDS011;60047;51.644;5.842;2022-11-20T21:54:54;9.4;;;8.5;;
72161;SDS011;60047;51.644;5.842;2022-11-20T21:59:54;10.5;;;9.0;;
72161;SDS011;60047;51.644;5.842;2022-11-20T22:04:54;9.7;;;8.7;;
72161;SDS011;60047;51.644;5.842;2022-11-20T22:09:54;12.3;;;9.8;;
72161;SDS011;60047;51.644;5.842;2022-11-20T22:14:54;10.9;;;9.6;;
72161;SDS011;60047;51.644;5.842;2022-11-20T22:19:54;10.5;;;8.6;;
72161;SDS011;60047;51.644;5.842;2022-11-20T22:24:54;11.0;;;9.0;;
72161;SDS011;60047;51.644;5.842;2022-11-20T22:29:54;9.5;;;8.5;;
72161;SDS011;60047;51.644;5.842;2022-11-20T22:34:54;9.9;;;8.6;;
72161;SDS011;60047;51.644;5.842;2022-11-20T22:39:54;10.0;;;8.4;;
72161;SDS011;60047;51.644;5.842;2022-11-20T22:44:54;9.0;;;8.1;;
72161;SDS011;60047;51.644;5.842;2022-11-20T22:49:54;9.8;;;8.8;;
72161;SDS011;60047;51.644;5.842;2022-11-20T22:54:54;9.3;;;8.2;;
72161;SDS011;60047;51.644;5.842;2022-11-20T22:59:54;8.8;;;7.9;;
72161;SDS011;60047;51.644;5.842;2022-11-20T23:04:54;9.3;;;8.2;;
72161;SDS011;60047;51.644;5.842;2022-11-20T23:09:54;10.1;;;9.0;;
72161;SDS011;60047;51.644;5.842;2022-11-20T23:14:54;9.1;;;8.2;;
72161;SDS011;60047;51.644;5.842;2022-11-20T23:19:54;9.8;;;8.7;;
72161;SDS011;60047;51.644;5.842;2022-11-20T23:24:54;9.4;;;8.4;;
72161;SDS011;60047;51.644;5.842;2022-11-20T23:29:54;9.4;;;8.4;;
72161;SDS011;60047;51.644;5.842;2022-11-20T23:34:54;9.7;;;8.7;;
72161;SDS011;60047;51.644;5.842;2022-11-20T23:39:54;11.0;;;9.4;;
72161;SDS011;60047;51.644;5.842;2022-11-20T23:44:54;10.1;;;8.7;;
72161;SDS011;60047;51.644;5.842;2022-11-20T23:49:54;10.2;;;9.0;;
72161;SDS011;60047;51.644;5.842;2022-11-20T23:54:54;10.8;;;9.2;;
72161;SDS011;60047;51.644;5.842;2022-11-20T23:59:54;10.5;;;8.9;;
